Time;durP1;ratioP1;P1;durP2;ratioP2;P2;SDS_P1;SDS_P2;PMS_P1;PMS_P2;Temp;Humidity;BMP_temperature;BMP_pressure;BME280_temperature;BME280_humidity;BME280_pressure;Samples;Min_cycle;Max_cycle;Signal;HPM_P1;HPM_P2
2021/10/22 00:01:45;;;;;;;2.05;0.40;;;;;;;;;;5116859;28;20086;-79
2021/10/22 00:04:11;;;;;;;2.33;0.63;;;;;;;;;;5135313;28;20054;-79
2021/10/22 00:06:39;;;;;;;1.33;0.50;;;;;;;;;;5134862;28;20040;-79
2021/10/22 00:09:06;;;;;;;2.17;0.50;;;;;;;;;;5135574;28;20039;-79
2021/10/22 00:11:34;;;;;;;0.65;0.52;;;;;;;;;;5135345;28;20067;-79
2021/10/22 00:14:00;;;;;;;0.45;0.25;;;;;;;;;;5137673;27;20122;-79
2021/10/22 00:16:27;;;;;;;0.70;0.40;;;;;;;;;;5139739;27;20051;-79
2021/10/22 00:18:54;;;;;;;1.05;0.40;;;;;;;;;;5136042;27;20043;-79
2021/10/22 00:21:21;;;;;;;1.50;0.32;;;;;;;;;;5139060;27;20043;-79
2021/10/22 00:23:48;;;;;;;1.45;0.40;;;;;;;;;;5135109;27;20039;-80
2021/10/22 00:26:15;;;;;;;1.20;0.32;;;;;;;;;;5138864;27;20066;-80
2021/10/22 00:28:41;;;;;;;0.47;0.30;;;;;;;;;;5121127;27;20042;-79
2021/10/22 00:31:08;;;;;;;1.55;0.55;;;;;;;;;;5139046;27;20483;-79
2021/10/22 00:33:34;;;;;;;2.50;0.60;;;;;;;;;;5135399;27;20043;-79
2021/10/22 00:36:02;;;;;;;2.08;0.45;;;;;;;;;;5138613;27;20088;-79
2021/10/22 00:38:28;;;;;;;1.20;0.55;;;;;;;;;;5138988;27;20043;-79
2021/10/22 00:40:56;;;;;;;0.50;0.38;;;;;;;;;;5134518;27;20042;-79
2021/10/22 00:43:23;;;;;;;1.30;0.60;;;;;;;;;;5138157;27;20040;-79
2021/10/22 00:45:50;;;;;;;2.22;0.65;;;;;;;;;;5138922;27;20051;-79
2021/10/22 00:48:16;;;;;;;2.05;0.80;;;;;;;;;;5138377;27;20043;-79
2021/10/22 00:50:44;;;;;;;3.45;0.88;;;;;;;;;;5138823;27;20377;-79
2021/10/22 00:53:11;;;;;;;3.53;0.90;;;;;;;;;;5135323;27;20044;-79
2021/10/22 00:55:38;;;;;;;2.28;1.10;;;;;;;;;;5137334;27;20055;-80
2021/10/22 00:58:06;;;;;;;2.33;0.77;;;;;;;;;;5136213;27;20043;-79
2021/10/22 01:00:33;;;;;;;3.67;0.80;;;;;;;;;;5138079;27;20543;-80
2021/10/22 01:02:59;;;;;;;2.33;1.08;;;;;;;;;;5117261;22;20053;-81
2021/10/22 01:05:26;;;;;;;2.70;1.10;;;;;;;;;;5049335;28;20056;-81
2021/10/22 01:07:52;;;;;;;2.85;1.23;;;;;;;;;;5057094;28;20047;-80
2021/10/22 01:10:19;;;;;;;1.88;0.93;;;;;;;;;;5052403;28;20053;-81
2021/10/22 01:12:45;;;;;;;2.22;1.13;;;;;;;;;;5041427;28;20045;-81
2021/10/22 01:15:13;;;;;;;3.00;1.20;;;;;;;;;;5053010;28;20551;-80
2021/10/22 01:17:41;;;;;;;5.03;1.10;;;;;;;;;;5057467;28;20052;-81
2021/10/22 01:20:10;;;;;;;1.77;1.10;;;;;;;;;;5053943;28;20044;-81
2021/10/22 01:22:38;;;;;;;1.95;1.15;;;;;;;;;;5052410;28;20045;-80
2021/10/22 01:25:06;;;;;;;2.65;0.98;;;;;;;;;;5046841;28;20056;-80
2021/10/22 01:27:33;;;;;;;2.78;1.42;;;;;;;;;;5057307;28;20040;-80
2021/10/22 01:29:59;;;;;;;2.58;1.00;;;;;;;;;;5056123;28;20040;-81
2021/10/22 01:32:26;;;;;;;1.13;0.90;;;;;;;;;;5048951;28;20103;-81
2021/10/22 01:34:52;;;;;;;2.03;0.80;;;;;;;;;;5046696;28;20053;-80
2021/10/22 01:37:19;;;;;;;1.90;0.73;;;;;;;;;;5057131;28;20049;-81
2021/10/22 01:39:47;;;;;;;0.95;0.70;;;;;;;;;;5052987;28;20053;-81
2021/10/22 01:42:13;;;;;;;3.05;1.05;;;;;;;;;;5055293;28;20041;-81
2021/10/22 01:44:40;;;;;;;1.27;0.75;;;;;;;;;;5051297;28;20042;-81
2021/10/22 01:47:06;;;;;;;3.10;0.98;;;;;;;;;;5058637;28;20099;-81
2021/10/22 01:49:33;;;;;;;1.95;0.75;;;;;;;;;;5053241;28;20045;-80
2021/10/22 01:51:59;;;;;;;1.42;0.80;;;;;;;;;;5054528;28;20102;-80
2021/10/22 01:54:26;;;;;;;3.22;0.80;;;;;;;;;;5057383;28;20048;-80
2021/10/22 01:56:54;;;;;;;3.28;0.70;;;;;;;;;;5052586;28;20076;-80
2021/10/22 01:59:21;;;;;;;0.88;0.50;;;;;;;;;;5056837;28;20087;-80
2021/10/22 02:04:23;;;;;;;0.80;0.40;;;;;;;;;;5741703;22;20049;-91
2021/10/22 02:06:49;;;;;;;1.02;0.45;;;;;;;;;;5046405;28;20047;-91
2021/10/22 02:09:18;;;;;;;0.73;0.40;;;;;;;;;;5051531;28;20571;-91
2021/10/22 02:11:45;;;;;;;0.70;0.35;;;;;;;;;;5047996;28;20103;-90
2021/10/22 02:14:14;;;;;;;0.40;0.28;;;;;;;;;;5034269;28;20048;-91
2021/10/22 02:16:41;;;;;;;0.93;0.30;;;;;;;;;;5017158;28;20455;-91
2021/10/22 02:19:08;;;;;;;0.55;0.20;;;;;;;;;;5028049;28;20052;-92
2021/10/22 02:21:35;;;;;;;0.70;0.25;;;;;;;;;;5028999;28;20045;-90
2021/10/22 02:24:01;;;;;;;0.45;0.25;;;;;;;;;;5034700;28;20079;-90
2021/10/22 02:26:28;;;;;;;0.52;0.28;;;;;;;;;;5026839;28;20053;-91
2021/10/22 02:28:55;;;;;;;0.40;0.20;;;;;;;;;;5045825;28;20045;-90
2021/10/22 02:31:23;;;;;;;0.52;0.35;;;;;;;;;;5016148;28;20118;-90
2021/10/22 02:33:50;;;;;;;1.10;0.32;;;;;;;;;;5034439;28;20081;-90
2021/10/22 02:36:16;;;;;;;0.52;0.20;;;;;;;;;;5052280;28;20056;-90
2021/10/22 02:38:43;;;;;;;0.65;0.55;;;;;;;;;;5053023;28;20044;-91
2021/10/22 02:41:13;;;;;;;0.47;0.20;;;;;;;;;;5032971;28;20127;-90
2021/10/22 02:43:41;;;;;;;0.88;0.38;;;;;;;;;;5050247;28;20120;-90
2021/10/22 02:46:08;;;;;;;0.65;0.20;;;;;;;;;;5034904;28;20049;-89
2021/10/22 02:48:36;;;;;;;1.23;0.50;;;;;;;;;;5032718;28;20480;-90
2021/10/22 02:51:03;;;;;;;0.40;0.22;;;;;;;;;;5049490;28;20052;-91
2021/10/22 02:53:30;;;;;;;0.45;0.28;;;;;;;;;;5023285;28;20112;-89
2021/10/22 02:55:56;;;;;;;1.85;0.50;;;;;;;;;;5019045;28;20103;-90
2021/10/22 02:58:23;;;;;;;1.17;0.50;;;;;;;;;;5036011;28;20481;-90
2021/10/22 03:00:50;;;;;;;1.67;0.50;;;;;;;;;;5018788;28;20406;-90
2021/10/22 03:03:16;;;;;;;0.75;0.40;;;;;;;;;;5045940;28;20048;-90
2021/10/22 03:05:46;;;;;;;1.40;0.70;;;;;;;;;;5026060;28;20057;-90
2021/10/22 03:08:12;;;;;;;0.63;0.40;;;;;;;;;;5050014;28;20524;-90
2021/10/22 03:10:39;;;;;;;0.52;0.35;;;;;;;;;;5034323;28;20455;-90
2021/10/22 03:13:06;;;;;;;2.03;0.75;;;;;;;;;;5030377;28;20167;-91
2021/10/22 03:15:33;;;;;;;1.27;0.60;;;;;;;;;;5028762;28;20041;-91
2021/10/22 03:18:00;;;;;;;1.15;0.50;;;;;;;;;;5002098;28;20053;-91
2021/10/22 03:20:27;;;;;;;0.85;0.55;;;;;;;;;;5035048;28;20045;-91
2021/10/22 03:22:56;;;;;;;0.70;0.40;;;;;;;;;;5017968;28;20049;-90
2021/10/22 03:25:23;;;;;;;1.33;0.57;;;;;;;;;;5013970;28;20045;-91
2021/10/22 03:27:49;;;;;;;0.40;0.30;;;;;;;;;;5039160;28;20045;-90
2021/10/22 03:30:16;;;;;;;0.40;0.40;;;;;;;;;;5031644;28;20044;-90
2021/10/22 03:32:43;;;;;;;2.10;0.60;;;;;;;;;;5027359;28;20045;-90
2021/10/22 03:35:10;;;;;;;1.25;0.80;;;;;;;;;;5042011;28;20053;-91
2021/10/22 03:37:37;;;;;;;3.33;0.80;;;;;;;;;;5016703;28;20048;-91
2021/10/22 03:40:08;;;;;;;1.52;0.52;;;;;;;;;;5049268;28;20045;-91
2021/10/22 03:42:35;;;;;;;1.50;0.60;;;;;;;;;;5001132;28;20049;-91
2021/10/22 03:45:02;;;;;;;2.92;0.88;;;;;;;;;;5052071;28;20049;-92
2021/10/22 03:47:28;;;;;;;1.55;0.70;;;;;;;;;;5024846;28;20045;-91
2021/10/22 03:49:55;;;;;;;2.15;0.80;;;;;;;;;;5039514;28;20049;-91
2021/10/22 03:52:22;;;;;;;1.52;0.77;;;;;;;;;;5042326;28;20052;-90
2021/10/22 03:54:50;;;;;;;1.38;0.63;;;;;;;;;;5040419;28;20614;-91
2021/10/22 03:57:18;;;;;;;2.20;0.95;;;;;;;;;;5025147;28;20052;-92
2021/10/22 03:59:46;;;;;;;1.52;0.80;;;;;;;;;;5033829;28;20056;-91
2021/10/22 04:02:12;;;;;;;2.75;0.82;;;;;;;;;;5045158;28;20064;-91
2021/10/22 04:04:44;;;;;;;3.65;0.90;;;;;;;;;;5033833;28;20102;-92
2021/10/22 04:07:11;;;;;;;2.50;1.23;;;;;;;;;;5028830;28;20053;-91
2021/10/22 04:09:38;;;;;;;2.80;1.23;;;;;;;;;;5032462;28;20049;-93
2021/10/22 04:12:05;;;;;;;5.93;1.10;;;;;;;;;;5048703;28;20045;-92
2021/10/22 04:14:33;;;;;;;2.67;0.95;;;;;;;;;;5053020;28;20052;-93
2021/10/22 04:17:00;;;;;;;2.83;1.08;;;;;;;;;;5038742;28;20051;-92
2021/10/22 04:19:27;;;;;;;3.88;1.10;;;;;;;;;;5051492;28;20068;-92
2021/10/22 04:21:55;;;;;;;2.30;0.93;;;;;;;;;;5029279;28;20079;-92
2021/10/22 04:24:23;;;;;;;2.90;1.35;;;;;;;;;;5041599;28;20068;-92
2021/10/22 04:26:50;;;;;;;2.72;1.10;;;;;;;;;;5001319;28;20045;-92
2021/10/22 04:29:17;;;;;;;3.67;1.35;;;;;;;;;;5016081;28;20098;-92
2021/10/22 04:31:45;;;;;;;3.75;1.30;;;;;;;;;;5025466;28;20413;-92
2021/10/22 04:34:11;;;;;;;2.40;1.35;;;;;;;;;;5049025;28;20056;-93
2021/10/22 04:36:39;;;;;;;3.60;1.50;;;;;;;;;;5034689;28;20110;-92
2021/10/22 04:41:51;;;;;;;2.53;1.00;;;;;;;;;;5049781;28;20056;-93
2021/10/22 04:44:18;;;;;;;2.45;1.52;;;;;;;;;;5026273;28;20144;-92
2021/10/22 04:46:47;;;;;;;4.45;1.30;;;;;;;;;;5046960;28;20041;-92
2021/10/22 04:49:14;;;;;;;2.33;1.00;;;;;;;;;;5033019;28;20056;-93
2021/10/22 04:51:40;;;;;;;4.03;1.58;;;;;;;;;;5049820;28;20053;-92
2021/10/22 04:54:07;;;;;;;2.63;1.30;;;;;;;;;;5030987;28;20052;-91
2021/10/22 04:56:34;;;;;;;1.77;1.05;;;;;;;;;;5033496;28;20081;-92
2021/10/22 04:59:24;;;;;;;;;;;;;;;;;;;;;
2021/10/22 05:01:56;;;;;;;2.13;1.00;;;;;;;;;;5041735;28;20045;-93
2021/10/22 05:04:24;;;;;;;3.80;1.30;;;;;;;;;;5051189;28;20041;-93
2021/10/22 05:06:50;;;;;;;3.35;1.40;;;;;;;;;;5045083;28;20049;-93
2021/10/22 05:09:21;;;;;;;4.22;1.65;;;;;;;;;;5037931;28;20053;-92
2021/10/22 05:11:47;;;;;;;3.55;1.67;;;;;;;;;;5040428;28;20102;-92
2021/10/22 05:14:14;;;;;;;2.45;1.40;;;;;;;;;;5056667;28;20052;-92
2021/10/22 05:16:41;;;;;;;5.28;1.80;;;;;;;;;;5035077;28;20124;-92
2021/10/22 05:19:09;;;;;;;5.03;1.90;;;;;;;;;;5000337;28;20120;-92
2021/10/22 05:21:36;;;;;;;5.05;2.15;;;;;;;;;;5022490;28;20045;-93
2021/10/22 05:24:03;;;;;;;2.60;1.55;;;;;;;;;;5037053;28;20107;-93
2021/10/22 05:26:30;;;;;;;2.90;1.52;;;;;;;;;;5036580;28;20045;-92
2021/10/22 05:28:57;;;;;;;4.60;1.50;;;;;;;;;;5054381;28;20511;-91
2021/10/22 05:31:23;;;;;;;3.33;1.77;;;;;;;;;;5053960;28;20053;-91
2021/10/22 05:33:53;;;;;;;4.57;1.50;;;;;;;;;;5035275;28;20048;-92
2021/10/22 05:36:22;;;;;;;4.70;1.35;;;;;;;;;;5030312;28;20060;-91
2021/10/22 05:38:51;;;;;;;4.07;2.00;;;;;;;;;;4994719;28;20644;-91
2021/10/22 05:41:17;;;;;;;6.38;1.95;;;;;;;;;;5031617;28;20049;-92
2021/10/22 05:43:45;;;;;;;4.68;2.13;;;;;;;;;;5023644;28;20087;-93
2021/10/22 05:46:12;;;;;;;5.70;2.20;;;;;;;;;;5018993;28;20139;-91
2021/10/22 05:48:39;;;;;;;5.60;2.20;;;;;;;;;;5047782;28;20091;-92
2021/10/22 05:51:06;;;;;;;7.20;1.90;;;;;;;;;;5008273;28;20464;-91
2021/10/22 05:53:34;;;;;;;7.28;2.83;;;;;;;;;;5015576;28;20051;-91
2021/10/22 05:56:01;;;;;;;7.53;3.03;;;;;;;;;;5030634;28;20061;-92
2021/10/22 05:58:27;;;;;;;5.03;2.63;;;;;;;;;;5037829;28;20056;-93
2021/10/22 06:00:54;;;;;;;6.15;2.97;;;;;;;;;;5051847;28;20435;-93
2021/10/22 06:03:21;;;;;;;5.13;2.75;;;;;;;;;;5041636;28;20404;-94
2021/10/22 06:05:53;;;;;;;5.75;2.95;;;;;;;;;;5038615;28;20051;-92
2021/10/22 06:08:20;;;;;;;6.78;2.40;;;;;;;;;;5024597;28;20132;-93
2021/10/22 06:10:48;;;;;;;5.07;2.72;;;;;;;;;;5014507;28;20493;-93
2021/10/22 06:13:16;;;;;;;3.95;2.20;;;;;;;;;;5008971;28;20451;-93
2021/10/22 06:15:43;;;;;;;14.75;2.78;;;;;;;;;;5039048;28;20053;-92
2021/10/22 06:18:10;;;;;;;4.80;2.65;;;;;;;;;;5042175;28;20127;-92
2021/10/22 06:20:46;;;;;;;7.07;2.20;;;;;;;;;;5035169;28;20083;-91
2021/10/22 06:25:59;;;;;;;3.80;1.88;;;;;;;;;;5046024;28;19944;-92
2021/10/22 06:28:26;;;;;;;8.25;2.85;;;;;;;;;;5044468;28;20140;-91
2021/10/22 06:30:52;;;;;;;7.15;2.55;;;;;;;;;;5046670;28;20041;-91
2021/10/22 06:33:19;;;;;;;5.82;2.30;;;;;;;;;;5029255;28;20412;-92
2021/10/22 06:35:50;;;;;;;6.40;2.60;;;;;;;;;;5027207;28;20065;-91
2021/10/22 06:38:18;;;;;;;6.10;2.50;;;;;;;;;;5041930;28;20501;-91
2021/10/22 06:40:45;;;;;;;3.80;1.70;;;;;;;;;;5021953;28;20080;-91
2021/10/22 06:43:17;;;;;;;5.75;2.00;;;;;;;;;;5019459;28;20049;-91
2021/10/22 06:45:43;;;;;;;4.70;2.03;;;;;;;;;;5030706;28;20215;-91
2021/10/22 06:48:10;;;;;;;9.43;2.20;;;;;;;;;;5032684;28;20052;-90
2021/10/22 06:50:37;;;;;;;4.35;2.08;;;;;;;;;;5014016;28;20065;-91
2021/10/22 06:53:03;;;;;;;14.65;3.55;;;;;;;;;;5030297;28;20041;-91
2021/10/22 06:55:32;;;;;;;5.10;2.17;;;;;;;;;;5032817;28;20056;-90
2021/10/22 06:57:59;;;;;;;8.77;2.97;;;;;;;;;;5005016;28;20052;-91
2021/10/22 07:00:27;;;;;;;5.53;2.30;;;;;;;;;;5035851;28;20044;-91
2021/10/22 07:02:56;;;;;;;6.13;2.30;;;;;;;;;;5026038;28;20068;-89
2021/10/22 07:05:35;;;;;;;7.35;2.70;;;;;;;;;;5034159;28;20048;-90
2021/10/22 07:08:02;;;;;;;7.32;1.98;;;;;;;;;;5028410;28;20060;-89
2021/10/22 07:10:30;;;;;;;5.68;2.33;;;;;;;;;;5051095;28;20049;-90
2021/10/22 07:12:57;;;;;;;5.45;1.98;;;;;;;;;;5045292;28;20102;-91
2021/10/22 07:15:38;;;;;;;9.70;4.22;;;;;;;;;;5033330;28;20053;-91
2021/10/22 07:18:05;;;;;;;5.53;2.70;;;;;;;;;;5044561;28;20056;-91
2021/10/22 07:20:33;;;;;;;4.32;2.08;;;;;;;;;;5052524;28;20052;-91
2021/10/22 07:23:04;;;;;;;8.90;2.65;;;;;;;;;;5010823;28;20049;-91
2021/10/22 07:25:33;;;;;;;15.25;3.10;;;;;;;;;;5050470;28;20041;-90
2021/10/22 07:28:06;;;;;;;6.78;3.40;;;;;;;;;;5027258;28;20066;-90
2021/10/22 07:30:35;;;;;;;6.60;3.70;;;;;;;;;;5026180;28;20046;-91
2021/10/22 07:33:02;;;;;;;9.93;3.67;;;;;;;;;;5030011;28;20053;-91
2021/10/22 07:35:28;;;;;;;6.05;3.50;;;;;;;;;;5044576;28;20055;-92
2021/10/22 07:37:55;;;;;;;7.55;3.50;;;;;;;;;;5023900;28;20499;-90
2021/10/22 07:40:22;;;;;;;8.65;4.43;;;;;;;;;;5035573;28;20057;-91
2021/10/22 07:42:49;;;;;;;20.23;4.55;;;;;;;;;;5037319;28;20041;-91
2021/10/22 07:45:16;;;;;;;10.98;3.80;;;;;;;;;;5042134;28;20060;-91
2021/10/22 07:47:44;;;;;;;11.88;4.22;;;;;;;;;;5044687;28;20049;-92
2021/10/22 07:50:11;;;;;;;13.65;4.40;;;;;;;;;;5044785;28;20053;-91
2021/10/22 07:52:38;;;;;;;6.70;4.03;;;;;;;;;;5026067;28;20049;-92
2021/10/22 07:55:05;;;;;;;7.55;4.38;;;;;;;;;;5046494;28;20060;-91
2021/10/22 07:57:33;;;;;;;7.78;4.50;;;;;;;;;;5056555;28;20044;-92
2021/10/22 08:00:00;;;;;;;10.05;5.53;;;;;;;;;;5009230;28;20455;-92
2021/10/22 08:02:27;;;;;;;9.23;4.45;;;;;;;;;;5043418;28;20053;-91
2021/10/22 08:04:55;;;;;;;9.32;4.20;;;;;;;;;;5051983;28;20047;-93
2021/10/22 08:07:27;;;;;;;8.13;4.28;;;;;;;;;;5048428;28;20432;-92
2021/10/22 08:09:54;;;;;;;8.25;4.57;;;;;;;;;;5039076;28;20056;-92
2021/10/22 08:12:21;;;;;;;7.97;4.35;;;;;;;;;;5028915;28;20147;-92
2021/10/22 08:14:48;;;;;;;10.38;4.68;;;;;;;;;;5028585;28;20440;-92
2021/10/22 08:17:15;;;;;;;8.80;4.40;;;;;;;;;;5052621;28;20069;-92
2021/10/22 08:19:42;;;;;;;10.50;4.70;;;;;;;;;;5036965;28;20049;-91
2021/10/22 08:22:27;;;;;;;11.40;4.53;;;;;;;;;;5046214;28;20078;-92
2021/10/22 08:24:55;;;;;;;12.75;6.38;;;;;;;;;;5038193;28;20056;-90
2021/10/22 08:27:21;;;;;;;9.00;4.57;;;;;;;;;;5047154;28;20452;-91
2021/10/22 08:29:49;;;;;;;7.80;4.20;;;;;;;;;;5037377;28;20625;-91
2021/10/22 08:32:15;;;;;;;7.55;3.83;;;;;;;;;;5015557;28;20045;-92
2021/10/22 08:34:42;;;;;;;8.68;4.50;;;;;;;;;;5048422;28;20041;-92
2021/10/22 08:37:11;;;;;;;10.80;4.85;;;;;;;;;;5007164;28;20658;-91
2021/10/22 08:39:44;;;;;;;11.20;4.78;;;;;;;;;;5028171;28;20045;-92
2021/10/22 08:42:11;;;;;;;8.90;3.47;;;;;;;;;;5018945;28;20065;-92
2021/10/22 08:44:40;;;;;;;9.98;3.72;;;;;;;;;;5006702;28;20080;-92
2021/10/22 08:47:07;;;;;;;7.45;4.00;;;;;;;;;;5029251;28;20041;-91
2021/10/22 08:49:34;;;;;;;7.65;4.20;;;;;;;;;;5051620;28;20049;-91
2021/10/22 08:52:03;;;;;;;9.88;3.45;;;;;;;;;;5023436;28;20049;-91
2021/10/22 08:54:33;;;;;;;10.48;4.15;;;;;;;;;;5003942;28;20048;-92
2021/10/22 08:57:00;;;;;;;7.95;3.50;;;;;;;;;;5026407;28;20057;-91
2021/10/22 08:59:27;;;;;;;11.60;4.05;;;;;;;;;;5057238;28;20405;-92
2021/10/22 09:02:11;;;;;;;9.98;5.00;;;;;;;;;;5028128;28;20076;-92
2021/10/22 09:04:38;;;;;;;12.32;4.18;;;;;;;;;;5053701;28;20071;-92
2021/10/22 09:07:05;;;;;;;8.85;4.05;;;;;;;;;;5034605;28;20056;-92
2021/10/22 09:09:34;;;;;;;11.70;4.35;;;;;;;;;;5054993;28;20049;-92
2021/10/22 09:12:01;;;;;;;8.77;3.75;;;;;;;;;;5010164;28;20056;-94
2021/10/22 09:14:28;;;;;;;8.35;3.55;;;;;;;;;;5036906;28;20051;-91
2021/10/22 09:16:55;;;;;;;8.27;3.72;;;;;;;;;;5009806;28;20042;-91
2021/10/22 09:19:35;;;;;;;11.65;4.65;;;;;;;;;;5035419;28;20057;-93
2021/10/22 09:22:21;;;;;;;10.07;3.95;;;;;;;;;;5045676;28;20056;-90
2021/10/22 09:24:51;;;;;;;6.90;3.83;;;;;;;;;;5042576;28;20099;-91
2021/10/22 09:27:35;;;;;;;6.85;3.83;;;;;;;;;;5042771;28;20060;-92
2021/10/22 09:30:03;;;;;;;9.98;3.88;;;;;;;;;;5035097;28;20048;-91
2021/10/22 09:32:31;;;;;;;6.90;3.15;;;;;;;;;;5032003;28;20077;-92
2021/10/22 09:34:58;;;;;;;6.15;3.08;;;;;;;;;;5038276;28;20055;-92
2021/10/22 09:37:39;;;;;;;6.68;3.08;;;;;;;;;;5012844;28;20076;-92
2021/10/22 09:40:08;;;;;;;12.00;3.72;;;;;;;;;;5029089;28;20057;-91
2021/10/22 09:42:37;;;;;;;8.32;3.97;;;;;;;;;;5048548;28;20049;-92
2021/10/22 09:45:04;;;;;;;7.63;3.30;;;;;;;;;;5052252;28;20072;-93
2021/10/22 09:47:31;;;;;;;6.10;3.28;;;;;;;;;;5031830;28;20076;-91
2021/10/22 09:50:06;;;;;;;10.20;2.90;;;;;;;;;;5036502;28;20049;-93
2021/10/22 09:52:33;;;;;;;6.38;2.28;;;;;;;;;;5038752;28;20493;-92
2021/10/22 09:55:10;;;;;;;9.30;2.70;;;;;;;;;;5023196;28;20485;-92
2021/10/22 09:57:38;;;;;;;5.55;2.00;;;;;;;;;;5041638;28;20049;-91
2021/10/22 10:00:07;;;;;;;8.88;2.13;;;;;;;;;;5043110;28;20519;-92
2021/10/22 10:02:35;;;;;;;10.27;2.67;;;;;;;;;;5033643;28;20052;-93
2021/10/22 10:05:02;;;;;;;8.45;1.77;;;;;;;;;;5025230;28;20053;-91
2021/10/22 10:07:29;;;;;;;8.18;1.67;;;;;;;;;;5004252;28;20547;-92
2021/10/22 10:09:56;;;;;;;7.07;2.22;;;;;;;;;;5010894;28;20066;-91
2021/10/22 10:12:24;;;;;;;9.75;2.60;;;;;;;;;;5025089;28;20049;-91
2021/10/22 10:14:51;;;;;;;6.45;2.00;;;;;;;;;;5000432;28;20537;-92
2021/10/22 10:17:18;;;;;;;6.18;2.30;;;;;;;;;;5019025;28;20124;-92
2021/10/22 10:19:46;;;;;;;8.52;2.50;;;;;;;;;;5017411;28;20052;-91
2021/10/22 10:22:26;;;;;;;5.18;2.10;;;;;;;;;;5037497;28;20056;-91
2021/10/22 10:24:57;;;;;;;6.50;1.70;;;;;;;;;;5041727;28;20041;-90
2021/10/22 10:27:26;;;;;;;4.35;1.63;;;;;;;;;;5038484;28;20068;-91
2021/10/22 10:29:55;;;;;;;6.53;1.85;;;;;;;;;;5045463;28;20044;-92
2021/10/22 10:32:24;;;;;;;9.70;1.98;;;;;;;;;;4987465;28;20049;-91
2021/10/22 10:34:52;;;;;;;7.70;1.30;;;;;;;;;;5046988;28;20049;-90
2021/10/22 10:37:32;;;;;;;3.63;1.00;;;;;;;;;;5039509;28;20090;-90
2021/10/22 10:40:11;;;;;;;4.68;2.08;;;;;;;;;;5044300;28;20053;-91
2021/10/22 10:42:45;;;;;;;8.60;1.60;;;;;;;;;;5013362;28;20493;-89
2021/10/22 10:45:43;;;;;;;9.95;1.70;;;;;;;;;;5020215;28;20045;-90
2021/10/22 10:48:13;;;;;;;6.18;1.55;;;;;;;;;;5029083;28;20087;-89
2021/10/22 10:50:46;;;;;;;10.85;2.38;;;;;;;;;;5023209;28;20072;-90
2021/10/22 10:53:17;;;;;;;4.90;1.38;;;;;;;;;;5011723;28;20072;-90
2021/10/22 10:55:45;;;;;;;7.72;1.75;;;;;;;;;;5045385;28;20045;-90
2021/10/22 10:58:19;;;;;;;6.70;1.50;;;;;;;;;;5029860;28;20048;-90
2021/10/22 11:00:51;;;;;;;6.28;2.45;;;;;;;;;;5028309;28;20044;-90
2021/10/22 11:03:26;;;;;;;8.70;2.20;;;;;;;;;;5042284;28;20112;-89
2021/10/22 11:06:13;;;;;;;13.30;2.92;;;;;;;;;;5024359;28;20048;-92
2021/10/22 11:08:46;;;;;;;9.10;2.40;;;;;;;;;;5046647;28;20044;-92
2021/10/22 11:11:41;;;;;;;9.60;1.80;;;;;;;;;;5039311;28;20484;-91
2021/10/22 11:14:19;;;;;;;9.45;1.90;;;;;;;;;;5030675;28;20107;-91
2021/10/22 11:16:51;;;;;;;13.18;2.17;;;;;;;;;;5022504;28;20076;-89
2021/10/22 11:19:22;;;;;;;10.90;2.70;;;;;;;;;;5032931;28;20087;-90
2021/10/22 11:21:51;;;;;;;6.60;1.80;;;;;;;;;;5032987;28;20060;-90
2021/10/22 11:24:19;;;;;;;9.23;1.70;;;;;;;;;;5033029;28;20451;-89
2021/10/22 11:26:54;;;;;;;6.28;1.88;;;;;;;;;;5035415;28;20504;-92
2021/10/22 11:29:23;;;;;;;9.35;1.50;;;;;;;;;;5027887;28;20057;-89
2021/10/22 11:31:53;;;;;;;8.07;2.08;;;;;;;;;;5029758;28;20045;-90
2021/10/22 11:34:21;;;;;;;8.20;1.55;;;;;;;;;;5025159;28;20077;-90
2021/10/22 11:36:56;;;;;;;5.45;1.48;;;;;;;;;;5052318;28;20068;-89
2021/10/22 11:39:24;;;;;;;9.98;2.47;;;;;;;;;;5042678;28;20052;-91
2021/10/22 11:42:05;;;;;;;5.60;1.63;;;;;;;;;;5044599;28;20049;-91
2021/10/22 11:44:34;;;;;;;6.38;1.55;;;;;;;;;;5046026;28;20055;-89
2021/10/22 11:47:01;;;;;;;7.60;1.52;;;;;;;;;;5041723;28;20046;-90
2021/10/22 11:49:28;;;;;;;7.78;1.50;;;;;;;;;;5024218;28;20065;-90
2021/10/22 11:51:56;;;;;;;8.43;2.30;;;;;;;;;;5028696;28;20049;-90
2021/10/22 11:54:30;;;;;;;7.40;1.75;;;;;;;;;;5040559;28;20053;-91
2021/10/22 11:56:57;;;;;;;7.55;1.50;;;;;;;;;;5019159;28;20493;-88
2021/10/22 11:59:24;;;;;;;9.30;2.10;;;;;;;;;;5044675;28;20037;-90
2021/10/22 12:01:54;;;;;;;7.72;1.85;;;;;;;;;;5022536;28;20049;-90
2021/10/22 12:04:26;;;;;;;4.72;1.38;;;;;;;;;;5009303;28;20124;-89
2021/10/22 12:07:05;;;;;;;6.18;1.40;;;;;;;;;;5006946;28;20064;-90
2021/10/22 12:09:33;;;;;;;4.95;1.70;;;;;;;;;;5032292;28;20084;-91
2021/10/22 12:12:06;;;;;;;9.15;1.80;;;;;;;;;;5023418;28;20115;-90
2021/10/22 12:14:46;;;;;;;5.07;1.30;;;;;;;;;;5032642;28;20566;-88
2021/10/22 12:17:20;;;;;;;7.22;1.20;;;;;;;;;;5037550;28;20500;-88
2021/10/22 12:19:50;;;;;;;6.43;1.42;;;;;;;;;;5050302;28;20037;-91
2021/10/22 12:22:23;;;;;;;7.60;1.35;;;;;;;;;;5032950;28;20094;-91
2021/10/22 12:24:52;;;;;;;6.60;1.80;;;;;;;;;;5049424;28;20041;-90
2021/10/22 12:27:19;;;;;;;4.85;1.08;;;;;;;;;;5026183;28;20049;-89
2021/10/22 12:29:56;;;;;;;5.45;1.27;;;;;;;;;;5026503;28;20045;-88
2021/10/22 12:32:37;;;;;;;3.90;1.33;;;;;;;;;;5019633;28;20056;-90
2021/10/22 12:35:06;;;;;;;5.07;1.20;;;;;;;;;;5046453;28;20052;-89
2021/10/22 12:37:37;;;;;;;5.72;1.20;;;;;;;;;;5030331;28;20095;-91
2021/10/22 12:40:18;;;;;;;4.35;1.65;;;;;;;;;;5047799;28;20044;-89
2021/10/22 12:42:48;;;;;;;5.75;1.60;;;;;;;;;;5044574;28;20049;-89
2021/10/22 12:45:21;;;;;;;4.05;1.00;;;;;;;;;;5027386;28;20091;-91
2021/10/22 12:47:50;;;;;;;8.48;1.58;;;;;;;;;;5027835;28;20052;-88
2021/10/22 12:50:18;;;;;;;6.03;1.48;;;;;;;;;;5023590;28;20125;-90
2021/10/22 12:52:56;;;;;;;5.63;1.33;;;;;;;;;;5045044;28;20401;-90
2021/10/22 12:55:23;;;;;;;5.43;1.17;;;;;;;;;;5047800;28;20049;-89
2021/10/22 12:57:50;;;;;;;7.95;1.10;;;;;;;;;;5045190;28;20131;-90
2021/10/22 13:00:23;;;;;;;8.13;1.23;;;;;;;;;;5012769;28;20048;-88
2021/10/22 13:02:52;;;;;;;10.35;1.88;;;;;;;;;;5032149;28;20061;-88
2021/10/22 13:05:22;;;;;;;6.10;1.20;;;;;;;;;;5027659;28;20147;-87
2021/10/22 13:11:07;;;;;;;8.23;1.75;;;;;;;;;;5038845;28;20090;-88
2021/10/22 13:13:54;;;;;;;4.07;1.02;;;;;;;;;;5018399;28;20055;-88
2021/10/22 13:21:50;;;;;;;5.97;1.30;;;;;;;;;;5036706;28;20516;-89
2021/10/22 13:24:17;;;;;;;4.22;0.80;;;;;;;;;;5060338;28;20051;-88
2021/10/22 13:26:44;;;;;;;4.25;0.98;;;;;;;;;;5037047;28;20050;-89
2021/10/22 13:29:15;;;;;;;3.75;0.90;;;;;;;;;;5009136;28;20044;-87
2021/10/22 13:31:46;;;;;;;5.20;1.48;;;;;;;;;;5048983;28;20045;-88
2021/10/22 13:34:15;;;;;;;4.13;1.00;;;;;;;;;;5029721;28;20041;-88
2021/10/22 13:36:45;;;;;;;2.85;0.90;;;;;;;;;;5033522;28;20122;-88
2021/10/22 13:39:13;;;;;;;4.25;1.10;;;;;;;;;;5047671;28;20386;-88
2021/10/22 13:41:41;;;;;;;3.45;0.75;;;;;;;;;;5025506;28;20050;-89
2021/10/22 13:44:08;;;;;;;4.60;1.55;;;;;;;;;;5030286;28;20057;-88
2021/10/22 13:46:39;;;;;;;4.60;0.70;;;;;;;;;;5027667;28;20052;-90
2021/10/22 13:49:06;;;;;;;4.38;0.75;;;;;;;;;;5050092;28;20053;-88
2021/10/22 13:51:34;;;;;;;2.22;0.80;;;;;;;;;;5011591;28;20049;-89
2021/10/22 13:54:02;;;;;;;1.77;0.65;;;;;;;;;;5050815;28;20080;-88
2021/10/22 13:56:32;;;;;;;2.20;0.57;;;;;;;;;;5035550;28;20041;-89
2021/10/22 13:59:00;;;;;;;8.70;1.23;;;;;;;;;;5031765;28;20049;-87
2021/10/22 14:01:27;;;;;;;3.25;0.60;;;;;;;;;;5012857;28;20045;-88
2021/10/22 14:03:54;;;;;;;3.08;1.10;;;;;;;;;;5050340;28;20049;-90
2021/10/22 14:06:21;;;;;;;1.42;0.45;;;;;;;;;;5027332;28;20053;-89
2021/10/22 14:08:49;;;;;;;4.85;1.10;;;;;;;;;;5017557;28;20104;-91
2021/10/22 14:11:18;;;;;;;2.10;0.60;;;;;;;;;;5047672;28;20064;-89
2021/10/22 14:13:53;;;;;;;2.45;0.68;;;;;;;;;;5014859;28;20075;-90
2021/10/22 14:19:33;;;;;;;2.33;0.65;;;;;;;;;;5006893;28;20056;-90
2021/10/22 14:25:05;;;;;;;5.75;0.70;;;;;;;;;;5008288;28;20116;-89
2021/10/22 14:30:16;;;;;;;2.53;0.80;;;;;;;;;;5047693;28;20150;-90
2021/10/22 14:32:43;;;;;;;8.50;2.17;;;;;;;;;;5044604;28;20041;-90
2021/10/22 14:35:10;;;;;;;3.00;1.02;;;;;;;;;;5018841;28;20047;-88
2021/10/22 14:37:37;;;;;;;6.90;0.80;;;;;;;;;;5026841;28;20041;-87
2021/10/22 14:40:11;;;;;;;4.18;1.20;;;;;;;;;;5047625;28;20057;-89
2021/10/22 14:42:38;;;;;;;2.28;0.68;;;;;;;;;;5020568;28;20049;-89
2021/10/22 14:45:12;;;;;;;1.30;0.60;;;;;;;;;;5045353;28;20095;-89
2021/10/22 14:47:42;;;;;;;6.57;1.10;;;;;;;;;;5029396;28;20041;-89
2021/10/22 14:50:15;;;;;;;6.75;1.08;;;;;;;;;;5028992;28;20083;-88
2021/10/22 14:53:00;;;;;;;3.53;0.85;;;;;;;;;;5044164;28;20041;-89
2021/10/22 14:55:33;;;;;;;3.08;0.80;;;;;;;;;;5042621;28;20793;-88
2021/10/22 14:58:01;;;;;;;2.92;1.13;;;;;;;;;;5044893;28;20128;-88
2021/10/22 15:00:31;;;;;;;3.55;0.75;;;;;;;;;;5042494;28;20041;-89
2021/10/22 15:02:58;;;;;;;2.50;0.63;;;;;;;;;;5028470;28;20103;-89
2021/10/22 15:05:24;;;;;;;2.85;0.75;;;;;;;;;;5047833;28;20069;-87
2021/10/22 15:07:51;;;;;;;2.53;0.70;;;;;;;;;;5052570;28;20131;-89
2021/10/22 15:10:18;;;;;;;2.97;0.60;;;;;;;;;;5033327;28;20056;-88
2021/10/22 15:12:46;;;;;;;4.05;0.75;;;;;;;;;;5024628;28;20041;-88
2021/10/22 15:15:13;;;;;;;3.80;0.73;;;;;;;;;;5036941;28;20081;-88
2021/10/22 15:17:40;;;;;;;2.80;0.80;;;;;;;;;;5028473;28;20489;-89
2021/10/22 15:20:09;;;;;;;4.53;1.25;;;;;;;;;;5049739;28;20045;-88